Time;durP1;ratioP1;P1;durP2;ratioP2;P2;SDS_P1;SDS_P2;PMS_P1;PMS_P2;Temp;Humidity;BMP_temperature;BMP_pressure;BME280_temperature;BME280_humidity;BME280_pressure;Samples;Min_cycle;Max_cycle;Signal;HPM_P1;HPM_P2
2023/11/21 06:45:59;;;;;;;6.22;3.30;;;;;;;;;;10600195;27;20496;-81
2023/11/21 06:51:00;;;;;;;;;;;;;;;;;;10582798;28;20020;-82
2023/11/21 06:56:01;;;;;;;7.47;4.78;;;;;;;;;;10581431;28;20355;-82
2023/11/21 07:01:02;;;;;;;5.97;3.33;;;;;;;;;;10582117;28;20031;-82
2023/11/21 07:06:03;;;;;;;;;;;;;;;;;;10581275;28;20060;-82
2023/11/21 07:11:05;;;;;;;5.18;3.63;;;;;;;;;;10579667;28;19907;-82
2023/11/21 07:16:06;;;;;;;4.57;3.15;;;;;;;;;;10581079;28;20032;-82
2023/11/21 07:21:08;;;;;;;5.85;3.80;;;;;;;;;;10581996;28;20023;-82
2023/11/21 07:26:10;;;;;;;5.28;3.15;;;;;;;;;;10587616;28;20024;-82
2023/11/21 07:31:12;;;;;;;4.63;2.92;;;;;;;;;;10594837;28;20023;-82
2023/11/21 07:36:13;;;;;;;5.72;3.95;;;;;;;;;;10597258;28;20034;-81
2023/11/21 07:41:17;;;;;;;5.07;3.10;;;;;;;;;;10586755;28;20020;-81
2023/11/21 07:46:20;;;;;;;8.48;4.72;;;;;;;;;;10580271;28;20502;-81
2023/11/21 07:51:22;;;;;;;5.35;3.55;;;;;;;;;;10582709;28;20077;-81
2023/11/21 07:56:23;;;;;;;7.72;5.15;;;;;;;;;;10585162;28;20050;-81
2023/11/21 08:01:24;;;;;;;6.28;3.83;;;;;;;;;;10573689;28;20089;-78
2023/11/21 08:06:32;;;;;;;9.32;6.25;;;;;;;;;;10571967;28;20418;-81
2023/11/21 08:11:33;;;;;;;10.13;6.80;;;;;;;;;;10573422;28;20020;-78
2023/11/21 08:16:34;;;;;;;13.40;8.48;;;;;;;;;;10565285;28;20020;-78
2023/11/21 08:21:37;;;;;;;17.02;9.88;;;;;;;;;;10555683;28;20029;-80
2023/11/21 08:26:38;;;;;;;16.42;9.98;;;;;;;;;;10558797;28;20028;-79
2023/11/21 08:31:39;;;;;;;;;;;;;;;;;;10557046;28;20117;-78
2023/11/21 08:36:43;;;;;;;20.52;12.23;;;;;;;;;;10559007;28;19904;-79
2023/11/21 08:41:44;;;;;;;21.20;12.30;;;;;;;;;;10556603;28;20429;-81
2023/11/21 08:46:46;;;;;;;;;;;;;;;;;;10550214;28;20061;-79
2023/11/21 08:51:47;;;;;;;16.45;10.38;;;;;;;;;;10550349;28;19908;-78
2023/11/21 08:56:50;;;;;;;16.05;10.65;;;;;;;;;;10551901;28;20119;-78
2023/11/21 09:01:51;;;;;;;11.50;8.13;;;;;;;;;;10546258;28;20510;-77
2023/11/21 09:06:52;;;;;;;12.38;8.50;;;;;;;;;;10546641;28;20116;-77
2023/11/21 09:11:53;;;;;;;12.10;8.32;;;;;;;;;;10552891;28;20063;-78
2023/11/21 09:16:54;;;;;;;10.90;7.07;;;;;;;;;;10565256;28;20020;-77
2023/11/21 09:21:57;;;;;;;10.18;7.30;;;;;;;;;;10555817;28;20032;-77
2023/11/21 09:26:58;;;;;;;13.10;7.47;;;;;;;;;;10552000;28;20028;-77
2023/11/21 09:31:59;;;;;;;12.35;8.43;;;;;;;;;;10551443;28;20023;-77
2023/11/21 09:37:02;;;;;;;10.18;6.93;;;;;;;;;;10547664;28;20078;-77
2023/11/21 09:42:12;;;;;;;9.73;7.55;;;;;;;;;;10553366;28;20062;-77
2023/11/21 09:47:15;;;;;;;12.32;8.02;;;;;;;;;;10571734;28;20028;-78
2023/11/21 09:52:25;;;;;;;10.38;7.88;;;;;;;;;;10550818;28;20566;-77
2023/11/21 09:57:26;;;;;;;11.00;7.43;;;;;;;;;;10551958;28;20459;-77
2023/11/21 10:02:32;;;;;;;8.75;6.43;;;;;;;;;;10554333;28;20157;-77
2023/11/21 10:07:35;;;;;;;11.50;8.20;;;;;;;;;;10548863;28;20434;-77
2023/11/21 10:12:38;;;;;;;8.38;6.32;;;;;;;;;;10549557;28;20131;-77
2023/11/21 10:17:45;;;;;;;9.95;6.25;;;;;;;;;;10548946;28;20024;-78
2023/11/21 10:22:46;;;;;;;10.90;6.28;;;;;;;;;;10544798;28;20051;-77
2023/11/21 10:27:48;;;;;;;10.82;7.22;;;;;;;;;;10544620;28;20122;-78
2023/11/21 10:32:49;;;;;;;12.75;8.52;;;;;;;;;;10543250;28;20069;-77
2023/11/21 10:38:00;;;;;;;10.38;7.25;;;;;;;;;;10549445;28;20024;-78
2023/11/21 10:43:10;;;;;;;11.18;7.65;;;;;;;;;;10548404;28;20035;-77
2023/11/21 10:48:16;;;;;;;12.10;8.57;;;;;;;;;;10552820;28;20035;-80
2023/11/21 10:53:18;;;;;;;13.15;9.18;;;;;;;;;;10556733;28;20027;-78
2023/11/21 10:58:19;;;;;;;13.02;9.50;;;;;;;;;;10561536;28;20012;-78
2023/11/21 11:03:22;;;;;;;12.50;8.48;;;;;;;;;;10558935;28;20519;-78
2023/11/21 11:08:26;;;;;;;14.43;11.23;;;;;;;;;;10553299;28;20177;-78
2023/11/21 11:13:27;;;;;;;15.10;10.10;;;;;;;;;;10547472;28;20028;-78
2023/11/21 11:18:31;;;;;;;13.73;10.15;;;;;;;;;;10549762;28;20052;-77
2023/11/21 11:23:51;;;;;;;11.43;8.20;;;;;;;;;;10541748;28;20043;-77
2023/11/21 11:28:58;;;;;;;9.05;7.38;;;;;;;;;;10551473;28;20016;-78
2023/11/21 11:34:20;;;;;;;15.88;11.93;;;;;;;;;;10562381;28;20103;-79
2023/11/21 11:39:31;;;;;;;10.88;9.00;;;;;;;;;;10557568;28;20119;-80
2023/11/21 11:44:32;;;;;;;;;;;;;;;;;;10551859;28;20024;-77
2023/11/21 11:49:33;;;;;;;12.32;8.55;;;;;;;;;;10555980;28;19904;-78
2023/11/21 11:54:38;;;;;;;16.50;12.23;;;;;;;;;;10557296;28;20117;-78
2023/11/21 11:59:58;;;;;;;10.40;7.82;;;;;;;;;;10564011;28;20369;-78
2023/11/21 12:04:59;;;;;;;9.10;7.55;;;;;;;;;;10573094;28;20028;-80
2023/11/21 12:10:00;;;;;;;10.07;7.72;;;;;;;;;;10558620;28;20063;-79
2023/11/21 12:15:01;;;;;;;10.85;7.97;;;;;;;;;;10552981;28;20039;-77
2023/11/21 12:20:04;;;;;;;7.78;6.55;;;;;;;;;;10553017;28;20016;-77
2023/11/21 12:25:05;;;;;;;9.13;5.85;;;;;;;;;;10554434;28;20391;-78
2023/11/21 12:30:13;;;;;;;8.68;6.60;;;;;;;;;;10550136;28;20027;-78
2023/11/21 12:35:14;;;;;;;8.05;5.97;;;;;;;;;;10554571;28;20049;-77
2023/11/21 12:40:17;;;;;;;8.57;6.70;;;;;;;;;;10555229;28;20028;-80
2023/11/21 12:45:18;;;;;;;9.63;6.68;;;;;;;;;;10564928;28;20036;-80
2023/11/21 12:50:23;;;;;;;11.43;8.35;;;;;;;;;;10567391;28;20047;-81
2023/11/21 12:55:24;;;;;;;8.45;6.53;;;;;;;;;;10568813;28;20031;-79
2023/11/21 13:00:31;;;;;;;8.98;6.30;;;;;;;;;;10463263;22;20448;-82
2023/11/21 13:06:02;;;;;;;8.73;5.97;;;;;;;;;;10431567;28;20049;-81
2023/11/21 13:12:03;;;;;;;8.25;6.05;;;;;;;;;;10380390;28;20026;-82
2023/11/21 13:17:38;;;;;;;7.97;5.22;;;;;;;;;;10261752;29;20067;-83
2023/11/21 13:28:34;;;;;;;7.87;5.90;;;;;;;;;;10386862;28;20026;-82
2023/11/21 13:39:17;;;;;;;6.88;5.28;;;;;;;;;;10386045;28;20026;-81
2023/11/21 13:44:51;;;;;;;7.55;5.55;;;;;;;;;;10381421;28;20046;-81
2023/11/21 14:01:59;;;;;;;7.60;5.32;;;;;;;;;;10385388;28;20034;-81
2023/11/21 14:07:31;;;;;;;6.20;4.63;;;;;;;;;;10375005;28;20044;-81
2023/11/21 14:13:05;;;;;;;5.85;3.92;;;;;;;;;;10398800;28;20100;-81
2023/11/21 14:18:50;;;;;;;;;;;;;;;;;;10350234;28;20022;-82
2023/11/21 14:24:02;;;;;;;7.57;5.82;;;;;;;;;;10390310;28;19905;-82
2023/11/21 14:29:22;;;;;;;4.82;3.58;;;;;;;;;;10373650;28;20045;-83
2023/11/21 14:34:40;;;;;;;5.95;4.03;;;;;;;;;;10385904;28;20060;-80
2023/11/21 14:39:45;;;;;;;4.82;3.13;;;;;;;;;;10365970;28;20025;-81
2023/11/21 14:45:16;;;;;;;4.75;3.38;;;;;;;;;;10382207;28;20041;-83
2023/11/21 14:56:34;;;;;;;8.07;3.90;;;;;;;;;;10382124;28;20038;-83
2023/11/21 15:01:54;;;;;;;7.15;3.22;;;;;;;;;;10380488;28;20458;-82
2023/11/21 15:07:27;;;;;;;4.27;3.30;;;;;;;;;;10390524;28;20094;-82
2023/11/21 15:13:04;;;;;;;4.53;2.80;;;;;;;;;;10393927;28;20053;-83
2023/11/21 15:18:17;;;;;;;3.97;2.60;;;;;;;;;;10387458;28;20030;-81
2023/11/21 15:23:28;;;;;;;6.15;4.63;;;;;;;;;;10383199;28;20072;-82
2023/11/21 15:28:35;;;;;;;5.32;3.47;;;;;;;;;;10388567;28;20049;-81
2023/11/21 15:39:18;;;;;;;7.15;5.75;;;;;;;;;;10388955;28;20469;-81
2023/11/21 15:49:47;;;;;;;;;;;;;;;;;;10393090;28;20030;-82
2023/11/21 15:54:54;;;;;;;6.90;4.97;;;;;;;;;;10391886;28;19913;-82
2023/11/21 16:00:05;;;;;;;5.53;4.28;;;;;;;;;;10386899;28;20088;-81
2023/11/21 16:05:09;;;;;;;7.28;5.30;;;;;;;;;;10392094;28;20041;-80
2023/11/21 16:10:10;;;;;;;4.80;2.95;;;;;;;;;;10397049;28;20056;-80
2023/11/21 16:15:11;;;;;;;9.27;7.30;;;;;;;;;;10395991;28;20466;-80
2023/11/21 16:20:15;;;;;;;;;;;;;;;;;;10393862;28;20469;-81
2023/11/21 16:25:16;;;;;;;8.93;4.57;;;;;;;;;;10391158;28;19906;-83
2023/11/21 16:30:24;;;;;;;;;;;;;;;;;;10394390;28;20466;-83
2023/11/21 16:35:41;;;;;;;7.22;5.70;;;;;;;;;;10397224;28;19968;-82
2023/11/21 16:40:45;;;;;;;6.13;4.80;;;;;;;;;;10368689;28;20485;-82
2023/11/21 16:45:51;;;;;;;9.82;6.05;;;;;;;;;;10399844;28;20394;-82
2023/11/21 16:51:21;;;;;;;7.15;5.50;;;;;;;;;;10399757;28;20037;-82
2023/11/21 16:56:24;;;;;;;7.07;5.63;;;;;;;;;;10402752;28;20037;-82
2023/11/21 17:01:52;;;;;;;6.60;5.20;;;;;;;;;;10401022;28;20084;-82
2023/11/21 17:07:16;;;;;;;7.63;5.30;;;;;;;;;;10402369;28;20030;-82
2023/11/21 17:12:26;;;;;;;5.88;4.90;;;;;;;;;;10415730;28;20035;-81
2023/11/21 17:17:27;;;;;;;4.78;3.70;;;;;;;;;;10424794;28;20033;-81
2023/11/21 17:22:29;;;;;;;;;;;;;;;;;;10420212;28;20010;-84
2023/11/21 17:27:30;;;;;;;5.28;3.70;;;;;;;;;;10413281;28;19912;-84
2023/11/21 17:38:35;;;;;;;6.00;4.32;;;;;;;;;;10395581;28;20018;-86
2023/11/21 18:01:13;;;;;;;4.95;3.45;;;;;;;;;;10473944;28;20032;-86
2023/11/21 18:06:29;;;;;;;3.65;2.78;;;;;;;;;;10427262;28;20029;-86
2023/11/21 18:17:34;;;;;;;4.00;3.25;;;;;;;;;;10471288;28;20013;-86
2023/11/21 18:22:44;;;;;;;3.60;2.70;;;;;;;;;;10469476;28;20476;-86
